Terminal Aerodrome Forecast
Issued by NWS

Home | Current Version | Previous Version | Text Only | Print | Product List | Glossary On
Versions: 1 2 3 4 5 6 7 8 9 10 11 12 13 14 15 16 17 18
000
FTUS44 KLZK 231739
TAFADF
TAF
KADF 231739Z 2318/2418 04006KT P6SM VCSH SCT040 BKN120
      TEMPO 2319/2321 -RA OVC040
     FM240000 05007KT P6SM BKN050
     FM241200 07006KT P6SM BKN250=

USA.gov is the U.S. government's official web portal to all federal, state and local government web resources and services.